Time;durP1;ratioP1;P1;durP2;ratioP2;P2;SDS_P1;SDS_P2;PMS_P1;PMS_P2;Temp;Humidity;BMP_temperature;BMP_pressure;BME280_temperature;BME280_humidity;BME280_pressure;Samples;Min_cycle;Max_cycle;Signal;HPM_P1;HPM_P2
2021/06/28 00:02:29;;;;;;;6.80;6.10;;;;;;;;;;5054139;28;20416;-76
2021/06/28 00:04:55;;;;;;;7.10;6.50;;;;;;;;;;5054084;28;20464;-73
2021/06/28 00:07:21;;;;;;;7.70;7.10;;;;;;;;;;5053768;28;20416;-73
2021/06/28 00:09:47;;;;;;;7.07;6.47;;;;;;;;;;5054225;28;20440;-73
2021/06/28 00:12:13;;;;;;;7.47;6.87;;;;;;;;;;5054308;28;20407;-75
2021/06/28 00:14:39;;;;;;;8.13;7.43;;;;;;;;;;5054387;28;20418;-74
2021/06/28 00:17:05;;;;;;;7.10;6.50;;;;;;;;;;5053773;28;20411;-74
2021/06/28 00:19:31;;;;;;;7.67;6.97;;;;;;;;;;5053980;28;20433;-75
2021/06/28 00:21:57;;;;;;;6.73;6.23;;;;;;;;;;5054254;28;20765;-76
2021/06/28 00:24:23;;;;;;;7.00;6.40;;;;;;;;;;5054030;28;20467;-74
2021/06/28 00:26:49;;;;;;;8.80;8.00;;;;;;;;;;5053674;28;20507;-73
2021/06/28 00:29:15;;;;;;;7.80;7.13;;;;;;;;;;5053950;28;20854;-75
2021/06/28 00:31:41;;;;;;;7.20;6.60;;;;;;;;;;5053680;28;20443;-72
2021/06/28 00:34:07;;;;;;;7.67;7.17;;;;;;;;;;5053835;28;20478;-73
2021/06/28 00:36:34;;;;;;;9.13;8.30;;;;;;;;;;5053292;28;20412;-72
2021/06/28 00:39:00;;;;;;;8.13;7.40;;;;;;;;;;5053594;28;20436;-72
2021/06/28 00:41:26;;;;;;;8.67;7.87;;;;;;;;;;5053610;28;20453;-75
2021/06/28 00:43:52;;;;;;;7.50;6.80;;;;;;;;;;5053686;28;20416;-73
2021/06/28 00:46:18;;;;;;;7.87;7.07;;;;;;;;;;5053216;28;20404;-75
2021/06/28 00:48:44;;;;;;;8.13;7.33;;;;;;;;;;5052207;28;20470;-76
2021/06/28 00:51:10;;;;;;;8.23;7.57;;;;;;;;;;5053367;28;20404;-74
2021/06/28 00:53:36;;;;;;;7.30;6.70;;;;;;;;;;5053734;28;20411;-74
2021/06/28 00:56:12;;;;;;;9.00;8.20;;;;;;;;;;5053150;28;20454;-75
2021/06/28 00:58:39;;;;;;;7.90;7.20;;;;;;;;;;5052957;28;20455;-74
2021/06/28 01:01:05;;;;;;;8.60;7.90;;;;;;;;;;5053265;28;20459;-73
2021/06/28 01:03:31;;;;;;;8.43;7.73;;;;;;;;;;5053479;28;20408;-74
2021/06/28 01:05:59;;;;;;;8.60;7.90;;;;;;;;;;5053202;28;20759;-75
2021/06/28 01:08:25;;;;;;;7.93;7.23;;;;;;;;;;5052974;28;20441;-73
2021/06/28 01:10:51;;;;;;;8.23;7.53;;;;;;;;;;5052850;28;20502;-74
2021/06/28 01:13:17;;;;;;;8.70;7.90;;;;;;;;;;5052004;28;20423;-74
2021/06/28 01:15:43;;;;;;;8.87;8.07;;;;;;;;;;5053046;28;20436;-74
2021/06/28 01:18:09;;;;;;;7.90;7.20;;;;;;;;;;5051607;28;20428;-75
2021/06/28 01:20:35;;;;;;;8.03;7.33;;;;;;;;;;5052669;28;20459;-75
2021/06/28 01:23:18;;;;;;;8.13;7.43;;;;;;;;;;5053170;28;20407;-73
2021/06/28 01:25:44;;;;;;;8.33;7.63;;;;;;;;;;5053137;28;20764;-76
2021/06/28 01:28:11;;;;;;;9.17;7.90;;;;;;;;;;5052557;28;20431;-76
2021/06/28 01:30:37;;;;;;;7.60;6.90;;;;;;;;;;5052931;28;20470;-74
2021/06/28 01:33:03;;;;;;;8.50;7.77;;;;;;;;;;5052774;28;20471;-73
2021/06/28 01:35:29;;;;;;;9.20;8.40;;;;;;;;;;5051533;28;20537;-75
2021/06/28 01:37:55;;;;;;;8.37;7.57;;;;;;;;;;5051122;28;20420;-73
2021/06/28 01:40:21;;;;;;;8.03;7.33;;;;;;;;;;5052948;28;20451;-74
2021/06/28 01:42:48;;;;;;;9.03;8.20;;;;;;;;;;5052568;28;20818;-73
2021/06/28 01:45:16;;;;;;;8.73;7.93;;;;;;;;;;5053307;28;20416;-74
2021/06/28 01:47:43;;;;;;;8.53;7.83;;;;;;;;;;5052517;28;20418;-76
2021/06/28 01:50:10;;;;;;;8.80;8.00;;;;;;;;;;5053049;28;20438;-75
2021/06/28 01:52:36;;;;;;;8.67;7.80;;;;;;;;;;5052982;28;20442;-75
2021/06/28 01:55:04;;;;;;;8.33;7.33;;;;;;;;;;5052576;28;20407;-73
2021/06/28 01:57:30;;;;;;;9.03;8.23;;;;;;;;;;5052384;28;20741;-76
2021/06/28 01:59:56;;;;;;;8.70;8.00;;;;;;;;;;5054601;28;20477;-76
2021/06/28 02:02:22;;;;;;;10.03;9.13;;;;;;;;;;5056809;28;20395;-76
2021/06/28 02:04:48;;;;;;;10.10;9.20;;;;;;;;;;5056490;28;20400;-75
2021/06/28 02:07:15;;;;;;;10.57;9.63;;;;;;;;;;5055904;28;20411;-72
2021/06/28 02:09:41;;;;;;;10.00;9.10;;;;;;;;;;5056593;28;20415;-74
2021/06/28 02:12:07;;;;;;;9.90;8.90;;;;;;;;;;5056393;28;20399;-74
2021/06/28 02:14:34;;;;;;;10.67;9.77;;;;;;;;;;5056770;28;20417;-75
2021/06/28 02:17:00;;;;;;;9.87;9.00;;;;;;;;;;5055793;28;20497;-74
2021/06/28 02:19:27;;;;;;;11.43;10.33;;;;;;;;;;5056278;28;20427;-75
2021/06/28 02:21:53;;;;;;;10.03;9.13;;;;;;;;;;5056356;28;20558;-73
2021/06/28 02:24:19;;;;;;;11.43;10.33;;;;;;;;;;5056697;28;20415;-73
2021/06/28 02:26:46;;;;;;;11.30;10.13;;;;;;;;;;5055816;28;20434;-75
2021/06/28 02:29:12;;;;;;;12.27;10.73;;;;;;;;;;5055863;28;20474;-75
2021/06/28 02:31:38;;;;;;;12.53;11.27;;;;;;;;;;5056038;28;20419;-75
2021/06/28 02:34:04;;;;;;;11.30;10.20;;;;;;;;;;5056132;28;20419;-74
2021/06/28 02:36:30;;;;;;;10.73;9.73;;;;;;;;;;5056067;28;20528;-75
2021/06/28 02:38:57;;;;;;;10.90;9.90;;;;;;;;;;5055830;28;20442;-74
2021/06/28 02:41:23;;;;;;;10.97;9.97;;;;;;;;;;5055710;28;20461;-73
2021/06/28 02:43:50;;;;;;;11.57;10.47;;;;;;;;;;5055981;28;20442;-74
2021/06/28 02:46:16;;;;;;;11.50;10.30;;;;;;;;;;5055878;28;20747;-75
2021/06/28 02:48:42;;;;;;;12.43;11.13;;;;;;;;;;5055383;28;20428;-75
2021/06/28 02:51:10;;;;;;;11.53;10.50;;;;;;;;;;5054523;28;20431;-74
2021/06/28 02:53:36;;;;;;;11.23;10.13;;;;;;;;;;5055260;28;20419;-75
2021/06/28 02:56:16;;;;;;;11.20;10.10;;;;;;;;;;5055509;28;20416;-74
2021/06/28 02:58:46;;;;;;;12.00;10.87;;;;;;;;;;5055189;28;20450;-73
2021/06/28 03:01:13;;;;;;;11.13;10.07;;;;;;;;;;5055440;28;20980;-75
2021/06/28 03:03:39;;;;;;;11.80;10.70;;;;;;;;;;5055306;28;20821;-74
2021/06/28 03:06:06;;;;;;;11.40;10.40;;;;;;;;;;5055681;28;20814;-73
2021/06/28 03:08:32;;;;;;;12.33;11.13;;;;;;;;;;5054587;28;20435;-76
2021/06/28 03:11:01;;;;;;;11.63;10.57;;;;;;;;;;5054451;28;20525;-75
2021/06/28 03:13:29;;;;;;;11.93;10.80;;;;;;;;;;5055318;28;20547;-76
2021/06/28 03:15:56;;;;;;;11.73;10.63;;;;;;;;;;5055609;28;20407;-75
2021/06/28 03:18:22;;;;;;;11.90;10.87;;;;;;;;;;5054802;28;20434;-75
2021/06/28 03:20:48;;;;;;;11.97;10.67;;;;;;;;;;5055377;28;20458;-75
2021/06/28 03:23:14;;;;;;;11.67;10.43;;;;;;;;;;5055363;28;20407;-76
2021/06/28 03:25:40;;;;;;;11.60;10.50;;;;;;;;;;5055190;28;20815;-76
2021/06/28 03:28:06;;;;;;;12.07;10.90;;;;;;;;;;5054520;28;20776;-75
2021/06/28 03:30:32;;;;;;;12.00;10.97;;;;;;;;;;5055291;28;20901;-76
2021/06/28 03:32:59;;;;;;;11.77;10.67;;;;;;;;;;5054985;28;20418;-74
2021/06/28 03:35:25;;;;;;;12.27;11.17;;;;;;;;;;5055323;28;20472;-75
2021/06/28 03:37:51;;;;;;;12.40;11.27;;;;;;;;;;5054394;28;20428;-75
2021/06/28 03:40:17;;;;;;;12.50;11.30;;;;;;;;;;5055018;28;20528;-75
2021/06/28 03:42:43;;;;;;;11.87;10.77;;;;;;;;;;5054630;28;20439;-76
2021/06/28 03:45:11;;;;;;;12.07;10.83;;;;;;;;;;5054799;28;20888;-74
2021/06/28 03:47:37;;;;;;;13.53;12.23;;;;;;;;;;5054175;28;20416;-73
2021/06/28 03:50:04;;;;;;;12.00;10.83;;;;;;;;;;5054953;28;20438;-76
2021/06/28 03:52:30;;;;;;;12.17;11.10;;;;;;;;;;5054650;28;20423;-74
2021/06/28 03:54:56;;;;;;;12.60;11.30;;;;;;;;;;5054622;28;20419;-75
2021/06/28 03:57:22;;;;;;;11.57;10.37;;;;;;;;;;5054034;28;20422;-76
2021/06/28 03:59:48;;;;;;;11.87;10.70;;;;;;;;;;5054288;28;20867;-74
2021/06/28 04:02:14;;;;;;;13.20;11.90;;;;;;;;;;5054215;28;20426;-75
2021/06/28 04:04:47;;;;;;;10.60;9.60;;;;;;;;;;5054570;28;20412;-74
2021/06/28 04:07:13;;;;;;;12.03;10.93;;;;;;;;;;5054061;28;20426;-76
2021/06/28 04:09:39;;;;;;;12.33;11.20;;;;;;;;;;5054352;28;20489;-76
2021/06/28 04:12:05;;;;;;;13.07;10.93;;;;;;;;;;5054421;28;20415;-75
2021/06/28 04:14:31;;;;;;;11.90;10.80;;;;;;;;;;5054195;28;20412;-73
2021/06/28 04:16:57;;;;;;;11.90;10.70;;;;;;;;;;5054104;28;20412;-73
2021/06/28 04:19:23;;;;;;;11.70;10.50;;;;;;;;;;5054190;28;20749;-76
2021/06/28 04:21:49;;;;;;;11.83;10.57;;;;;;;;;;5053861;28;20550;-76
2021/06/28 04:24:15;;;;;;;11.93;10.73;;;;;;;;;;5053910;28;20503;-76
2021/06/28 04:26:41;;;;;;;12.63;11.17;;;;;;;;;;5053731;28;20490;-74
2021/06/28 04:29:07;;;;;;;11.83;10.73;;;;;;;;;;5053698;28;20427;-75
2021/06/28 04:31:33;;;;;;;12.47;11.30;;;;;;;;;;5053963;28;20419;-73
2021/06/28 04:34:00;;;;;;;11.70;10.50;;;;;;;;;;5053643;28;20411;-75
2021/06/28 04:36:26;;;;;;;12.17;11.00;;;;;;;;;;5053966;28;20411;-76
2021/06/28 04:38:52;;;;;;;11.50;10.30;;;;;;;;;;5053414;28;20427;-75
2021/06/28 04:41:18;;;;;;;12.40;11.20;;;;;;;;;;5054099;28;20439;-77
2021/06/28 04:43:47;;;;;;;11.70;10.60;;;;;;;;;;5053564;28;20414;-74
2021/06/28 04:46:13;;;;;;;11.90;10.70;;;;;;;;;;5053537;28;20541;-76
2021/06/28 04:48:39;;;;;;;10.63;9.53;;;;;;;;;;5053194;28;20439;-73
2021/06/28 04:51:05;;;;;;;10.17;9.27;;;;;;;;;;5053586;28;20407;-74
2021/06/28 04:53:31;;;;;;;14.00;10.10;;;;;;;;;;5053556;28;20934;-75
2021/06/28 04:55:57;;;;;;;11.37;10.37;;;;;;;;;;5053616;28;20409;-76
2021/06/28 04:58:23;;;;;;;11.30;10.10;;;;;;;;;;5052646;28;20445;-76
2021/06/28 05:00:49;;;;;;;11.70;10.60;;;;;;;;;;5053550;28;20823;-73
2021/06/28 05:03:15;;;;;;;11.80;10.60;;;;;;;;;;5053557;28;20405;-77
2021/06/28 05:05:41;;;;;;;11.57;10.47;;;;;;;;;;5053580;28;20409;-73
2021/06/28 05:08:07;;;;;;;10.73;9.63;;;;;;;;;;5052743;28;20411;-74
2021/06/28 05:10:33;;;;;;;10.13;9.20;;;;;;;;;;5053006;28;20418;-76
2021/06/28 05:12:59;;;;;;;11.17;10.17;;;;;;;;;;5053315;28;20818;-75
2021/06/28 05:15:25;;;;;;;10.70;9.70;;;;;;;;;;5053269;28;20416;-73
2021/06/28 05:17:51;;;;;;;10.30;9.40;;;;;;;;;;5052726;28;20429;-76
2021/06/28 05:20:17;;;;;;;11.33;10.30;;;;;;;;;;5053021;28;20460;-74
2021/06/28 05:22:43;;;;;;;10.93;9.83;;;;;;;;;;5053199;28;20419;-75
2021/06/28 05:25:10;;;;;;;10.67;9.67;;;;;;;;;;5053338;28;20415;-76
2021/06/28 05:27:36;;;;;;;10.47;9.57;;;;;;;;;;5052871;28;20407;-74
2021/06/28 05:30:07;;;;;;;10.30;9.30;;;;;;;;;;5052958;28;20461;-75
2021/06/28 05:32:34;;;;;;;10.10;9.20;;;;;;;;;;5053083;28;20408;-77
2021/06/28 05:35:00;;;;;;;10.67;9.77;;;;;;;;;;5052627;28;20407;-74
2021/06/28 05:37:26;;;;;;;10.30;9.30;;;;;;;;;;5052831;28;20466;-73
2021/06/28 05:39:52;;;;;;;10.77;9.77;;;;;;;;;;5052634;28;20791;-74
2021/06/28 05:42:18;;;;;;;11.30;10.20;;;;;;;;;;5053045;28;20410;-76
2021/06/28 05:44:44;;;;;;;10.73;9.53;;;;;;;;;;5052805;28;20414;-73
2021/06/28 05:47:12;;;;;;;10.40;9.40;;;;;;;;;;5052718;28;20476;-74
2021/06/28 05:49:40;;;;;;;11.47;10.27;;;;;;;;;;5052803;28;20557;-75
2021/06/28 05:52:06;;;;;;;11.57;10.43;;;;;;;;;;5053093;28;20942;-74
2021/06/28 05:54:32;;;;;;;9.57;8.77;;;;;;;;;;5052533;28;20412;-76
2021/06/28 05:56:58;;;;;;;10.97;9.87;;;;;;;;;;5052607;28;20468;-75
2021/06/28 05:59:25;;;;;;;9.83;9.03;;;;;;;;;;5052490;28;20455;-75
2021/06/28 06:01:51;;;;;;;11.27;9.70;;;;;;;;;;5052860;28;20459;-75
2021/06/28 06:04:17;;;;;;;10.97;9.80;;;;;;;;;;5052692;28;20407;-75
2021/06/28 06:06:43;;;;;;;10.40;9.33;;;;;;;;;;5052134;28;20410;-76
2021/06/28 06:09:09;;;;;;;10.87;9.87;;;;;;;;;;5052571;28;20432;-74
2021/06/28 06:11:35;;;;;;;9.97;9.10;;;;;;;;;;5051706;28;20428;-74
2021/06/28 06:14:01;;;;;;;12.43;10.23;;;;;;;;;;5052437;28;20408;-77
2021/06/28 06:16:28;;;;;;;10.07;9.20;;;;;;;;;;5052775;28;20733;-74
2021/06/28 06:18:54;;;;;;;8.93;8.03;;;;;;;;;;5052090;28;20446;-75
2021/06/28 06:21:21;;;;;;;9.93;8.87;;;;;;;;;;5052555;28;20829;-76
2021/06/28 06:23:47;;;;;;;9.97;9.07;;;;;;;;;;5052633;28;20416;-75
2021/06/28 06:26:13;;;;;;;10.00;9.00;;;;;;;;;;5052691;28;20469;-73
2021/06/28 06:28:39;;;;;;;9.13;8.33;;;;;;;;;;5051591;28;20462;-74
2021/06/28 06:31:05;;;;;;;9.20;8.40;;;;;;;;;;5046521;28;20792;-75
2021/06/28 06:33:32;;;;;;;10.17;8.30;;;;;;;;;;5048852;28;20423;-76
2021/06/28 06:35:58;;;;;;;8.93;8.13;;;;;;;;;;5049087;28;20424;-73
2021/06/28 06:38:24;;;;;;;8.20;7.50;;;;;;;;;;5043366;28;20943;-76
2021/06/28 06:40:52;;;;;;;8.80;7.50;;;;;;;;;;5045642;28;20459;-72
2021/06/28 06:43:18;;;;;;;8.30;7.50;;;;;;;;;;5047725;28;20423;-75
2021/06/28 06:45:44;;;;;;;7.70;7.10;;;;;;;;;;5041587;28;20446;-75
2021/06/28 06:48:10;;;;;;;7.80;7.10;;;;;;;;;;5050769;28;20422;-76
2021/06/28 06:50:36;;;;;;;8.50;7.70;;;;;;;;;;5050516;28;20434;-72
2021/06/28 06:53:03;;;;;;;8.17;7.47;;;;;;;;;;5048367;28;20431;-75
2021/06/28 06:55:29;;;;;;;11.67;8.97;;;;;;;;;;5051999;28;20429;-74
2021/06/28 06:57:55;;;;;;;8.07;7.40;;;;;;;;;;5051733;28;20529;-73
2021/06/28 07:00:22;;;;;;;8.30;7.60;;;;;;;;;;5051925;28;20478;-73
2021/06/28 07:02:48;;;;;;;8.50;7.60;;;;;;;;;;5051400;28;20470;-74
2021/06/28 07:05:15;;;;;;;8.10;7.27;;;;;;;;;;5051644;28;21178;-77
2021/06/28 07:07:41;;;;;;;6.93;6.17;;;;;;;;;;5051113;28;20481;-71
2021/06/28 07:10:09;;;;;;;7.57;6.77;;;;;;;;;;5051731;28;20434;-74
2021/06/28 07:12:35;;;;;;;6.47;5.87;;;;;;;;;;5052014;28;20411;-74
2021/06/28 07:15:01;;;;;;;6.77;6.20;;;;;;;;;;5052411;28;20423;-74
2021/06/28 07:17:27;;;;;;;7.20;6.50;;;;;;;;;;5051444;28;20411;-74
2021/06/28 07:19:53;;;;;;;6.90;6.20;;;;;;;;;;5051326;28;20493;-72
2021/06/28 07:22:19;;;;;;;7.10;6.40;;;;;;;;;;5040904;28;20521;-73
2021/06/28 07:24:45;;;;;;;6.90;6.00;;;;;;;;;;5045067;28;20405;-76
2021/06/28 07:27:12;;;;;;;7.40;6.60;;;;;;;;;;5050753;28;20729;-74
2021/06/28 07:29:38;;;;;;;8.53;7.80;;;;;;;;;;5048208;28;20530;-75
2021/06/28 07:32:04;;;;;;;10.33;8.20;;;;;;;;;;5051053;28;20407;-75
2021/06/28 07:34:30;;;;;;;6.40;5.90;;;;;;;;;;5051029;28;20411;-77
2021/06/28 07:36:56;;;;;;;6.57;5.97;;;;;;;;;;5045532;28;20509;-75
2021/06/28 07:39:22;;;;;;;6.60;6.00;;;;;;;;;;5050497;28;20800;-73
2021/06/28 07:41:50;;;;;;;6.77;6.17;;;;;;;;;;5051068;28;20463;-74
2021/06/28 07:44:16;;;;;;;6.80;6.03;;;;;;;;;;5051274;28;20418;-76
2021/06/28 07:46:43;;;;;;;8.63;7.83;;;;;;;;;;5050545;28;20435;-74
2021/06/28 07:49:09;;;;;;;6.90;6.30;;;;;;;;;;5050811;28;20431;-77
2021/06/28 07:51:36;;;;;;;7.10;6.60;;;;;;;;;;5050803;28;20419;-73
2021/06/28 07:54:07;;;;;;;8.70;6.97;;;;;;;;;;5050521;28;20834;-76
2021/06/28 07:56:33;;;;;;;6.67;6.07;;;;;;;;;;5039742;28;20415;-75
2021/06/28 07:58:59;;;;;;;7.20;6.60;;;;;;;;;;5050389;28;20487;-74
2021/06/28 08:01:26;;;;;;;7.60;6.80;;;;;;;;;;5050484;28;20451;-76
2021/06/28 08:03:52;;;;;;;6.50;5.90;;;;;;;;;;5052332;28;20418;-77
2021/06/28 08:06:19;;;;;;;7.93;7.20;;;;;;;;;;5051676;28;20423;-74
2021/06/28 08:08:45;;;;;;;7.30;6.60;;;;;;;;;;5050075;28;20435;-74
2021/06/28 08:11:12;;;;;;;7.10;6.40;;;;;;;;;;5050205;28;20439;-74
2021/06/28 08:13:41;;;;;;;7.27;6.77;;;;;;;;;;5050349;28;20439;-75
2021/06/28 08:16:07;;;;;;;8.03;7.27;;;;;;;;;;5050029;28;20418;-76
2021/06/28 08:18:34;;;;;;;7.30;6.80;;;;;;;;;;5049931;28;20431;-75
2021/06/28 08:21:00;;;;;;;6.23;5.70;;;;;;;;;;5050013;28;20459;-74
2021/06/28 08:23:26;;;;;;;7.17;6.67;;;;;;;;;;5049940;28;20415;-74
2021/06/28 08:25:52;;;;;;;7.63;7.03;;;;;;;;;;5050115;28;20403;-76
2021/06/28 08:28:18;;;;;;;6.13;5.73;;;;;;;;;;5049566;28;20527;-72
2021/06/28 08:30:44;;;;;;;7.00;6.40;;;;;;;;;;5048474;28;20416;-74
2021/06/28 08:33:10;;;;;;;6.60;6.10;;;;;;;;;;5049963;28;20419;-75
2021/06/28 08:35:36;;;;;;;6.20;5.70;;;;;;;;;;5048230;28;20416;-74
2021/06/28 08:38:03;;;;;;;5.90;5.50;;;;;;;;;;5039601;28;20423;-74
2021/06/28 08:40:29;;;;;;;6.40;5.90;;;;;;;;;;5049862;28;20475;-76
2021/06/28 08:42:56;;;;;;;6.30;5.77;;;;;;;;;;5049895;28;21121;-76
2021/06/28 08:45:22;;;;;;;6.40;5.80;;;;;;;;;;5048911;28;20473;-76
2021/06/28 08:47:49;;;;;;;6.70;6.07;;;;;;;;;;5049503;28;20419;-74
2021/06/28 08:50:15;;;;;;;6.33;5.83;;;;;;;;;;5049788;28;20459;-76
2021/06/28 08:52:44;;;;;;;6.23;5.63;;;;;;;;;;5048248;28;20447;-75
2021/06/28 08:55:10;;;;;;;7.40;6.80;;;;;;;;;;5049669;28;20931;-74
2021/06/28 08:57:37;;;;;;;6.43;5.80;;;;;;;;;;5049150;28;20423;-72
2021/06/28 09:00:08;;;;;;;6.53;5.90;;;;;;;;;;5048813;28;20478;-73
2021/06/28 09:02:33;;;;;;;6.70;6.20;;;;;;;;;;5043781;28;20440;-74
2021/06/28 09:05:00;;;;;;;6.87;5.90;;;;;;;;;;5049818;28;20492;-76
2021/06/28 09:07:27;;;;;;;6.67;6.17;;;;;;;;;;5048939;28;20420;-75
2021/06/28 09:09:53;;;;;;;7.00;6.50;;;;;;;;;;5048851;28;20435;-73
2021/06/28 09:12:19;;;;;;;6.60;6.10;;;;;;;;;;5049370;28;20903;-74
2021/06/28 09:14:49;;;;;;;7.13;5.97;;;;;;;;;;5037471;28;20475;-76
2021/06/28 09:17:26;;;;;;;7.30;6.70;;;;;;;;;;5047830;28;20502;-74
2021/06/28 09:20:11;;;;;;;7.20;6.67;;;;;;;;;;5049106;28;20478;-73
2021/06/28 09:22:38;;;;;;;6.63;5.90;;;;;;;;;;5047827;28;20481;-73
2021/06/28 09:25:06;;;;;;;7.40;6.70;;;;;;;;;;5048872;28;20419;-75
2021/06/28 09:27:35;;;;;;;6.00;5.50;;;;;;;;;;5047258;28;20431;-77
2021/06/28 09:30:14;;;;;;;6.27;5.77;;;;;;;;;;5048422;28;20816;-76
2021/06/28 09:32:50;;;;;;;6.00;5.60;;;;;;;;;;5049115;28;20442;-75
2021/06/28 09:35:28;;;;;;;7.20;6.60;;;;;;;;;;5049152;28;20458;-76
2021/06/28 09:37:54;;;;;;;7.43;6.73;;;;;;;;;;5048554;28;20418;-76
2021/06/28 09:40:24;;;;;;;6.20;5.77;;;;;;;;;;5049155;28;20447;-75
2021/06/28 09:42:50;;;;;;;6.17;5.60;;;;;;;;;;5048884;28;20506;-73
2021/06/28 09:45:17;;;;;;;7.27;6.67;;;;;;;;;;5049067;28;20987;-76
2021/06/28 09:47:43;;;;;;;6.13;5.70;;;;;;;;;;5048452;28;20761;-76
2021/06/28 09:50:18;;;;;;;5.77;5.27;;;;;;;;;;5048965;28;20432;-75
2021/06/28 09:52:47;;;;;;;6.03;5.63;;;;;;;;;;5048784;28;20510;-75
2021/06/28 09:55:20;;;;;;;6.20;5.70;;;;;;;;;;5048959;28;20507;-75
2021/06/28 09:58:05;;;;;;;6.67;5.90;;;;;;;;;;5048497;28;20411;-76
2021/06/28 10:00:32;;;;;;;6.10;5.50;;;;;;;;;;5048670;28;20470;-73
2021/06/28 10:02:58;;;;;;;5.83;5.43;;;;;;;;;;5048967;28;20415;-74
2021/06/28 10:05:56;;;;;;;5.53;5.13;;;;;;;;;;5048778;28;20422;-74
2021/06/28 10:08:15;;;;;;;5.40;5.00;;;;;;;;;;5047755;28;20436;-74
2021/06/28 10:10:41;;;;;;;5.57;5.17;;;;;;;;;;5048775;28;20426;-73
2021/06/28 10:13:08;;;;;;;5.63;5.07;;;;;;;;;;5048989;28;20416;-73
2021/06/28 10:15:41;;;;;;;5.13;4.77;;;;;;;;;;5048918;28;20492;-73
2021/06/28 10:18:08;;;;;;;5.43;5.13;;;;;;;;;;5048517;28;20415;-75
2021/06/28 10:20:37;;;;;;;5.30;4.90;;;;;;;;;;5048878;28;20481;-75
2021/06/28 10:23:03;;;;;;;5.13;4.63;;;;;;;;;;5051256;28;20549;-73
2021/06/28 10:25:30;;;;;;;5.07;4.57;;;;;;;;;;5052249;28;20514;-76
2021/06/28 10:27:57;;;;;;;5.93;5.53;;;;;;;;;;5052029;28;20507;-76
2021/06/28 10:30:25;;;;;;;5.50;5.10;;;;;;;;;;5039489;28;20493;-73
2021/06/28 10:32:56;;;;;;;5.20;4.90;;;;;;;;;;5051653;28;20426;-75
2021/06/28 10:35:24;;;;;;;5.17;4.87;;;;;;;;;;5052574;28;20418;-75
2021/06/28 10:37:50;;;;;;;4.67;4.37;;;;;;;;;;5050555;28;20905;-73
2021/06/28 10:40:17;;;;;;;4.40;4.00;;;;;;;;;;5052099;28;20442;-73
2021/06/28 10:42:48;;;;;;;4.43;4.20;;;;;;;;;;5052108;28;20443;-74
2021/06/28 10:45:15;;;;;;;4.60;4.30;;;;;;;;;;5051015;28;21145;-75
2021/06/28 10:47:42;;;;;;;4.97;4.67;;;;;;;;;;5051570;28;20446;-75
2021/06/28 10:50:08;;;;;;;4.33;4.03;;;;;;;;;;5052127;28;20435;-75
2021/06/28 10:52:34;;;;;;;4.30;4.00;;;;;;;;;;5051729;28;20419;-76
2021/06/28 10:55:23;;;;;;;4.90;4.60;;;;;;;;;;5051694;28;20420;-74
2021/06/28 10:57:52;;;;;;;4.40;4.10;;;;;;;;;;5051189;28;20431;-77
2021/06/28 11:00:38;;;;;;;4.03;3.73;;;;;;;;;;5051810;28;21055;-76
2021/06/28 11:03:26;;;;;;;3.80;3.50;;;;;;;;;;5051584;28;20830;-75
2021/06/28 11:06:10;;;;;;;3.67;3.47;;;;;;;;;;5051662;28;20772;-75
2021/06/28 11:08:41;;;;;;;3.97;3.70;;;;;;;;;;5050755;28;20530;-73
2021/06/28 11:11:07;;;;;;;4.37;4.00;;;;;;;;;;5051275;28;20477;-72
2021/06/28 11:13:38;;;;;;;4.60;4.30;;;;;;;;;;5051298;28;20422;-74
2021/06/28 11:16:23;;;;;;;5.00;4.60;;;;;;;;;;5051696;28;20434;-73
2021/06/28 11:18:49;;;;;;;4.30;4.00;;;;;;;;;;5050754;28;20432;-74
2021/06/28 11:21:35;;;;;;;4.47;3.97;;;;;;;;;;5051399;28;20508;-72
2021/06/28 11:24:01;;;;;;;4.87;3.87;;;;;;;;;;5051379;28;20485;-70
2021/06/28 11:26:33;;;;;;;4.57;4.27;;;;;;;;;;5051346;28;20411;-71
2021/06/28 11:29:00;;;;;;;4.30;4.00;;;;;;;;;;5050737;28;20436;-75
2021/06/28 11:31:30;;;;;;;4.83;4.50;;;;;;;;;;5045803;28;20420;-73
2021/06/28 11:33:58;;;;;;;4.50;4.20;;;;;;;;;;5051129;28;20412;-71
2021/06/28 11:36:24;;;;;;;4.60;4.30;;;;;;;;;;5051111;28;20784;-72
2021/06/28 11:38:55;;;;;;;5.03;4.73;;;;;;;;;;5050960;28;20439;-73
2021/06/28 11:41:22;;;;;;;4.40;4.10;;;;;;;;;;5051256;28;20459;-75
2021/06/28 11:43:48;;;;;;;4.27;3.97;;;;;;;;;;5051231;28;20447;-75
2021/06/28 11:46:14;;;;;;;4.90;4.60;;;;;;;;;;5051156;28;20407;-75
2021/06/28 11:48:45;;;;;;;4.70;4.30;;;;;;;;;;5050518;28;20442;-74
2021/06/28 11:51:12;;;;;;;5.30;4.90;;;;;;;;;;5051006;28;20420;-72
2021/06/28 11:53:40;;;;;;;4.63;4.30;;;;;;;;;;5050664;28;20856;-74
2021/06/28 11:56:18;;;;;;;4.60;4.30;;;;;;;;;;5046470;28;20800;-74
2021/06/28 11:58:51;;;;;;;6.77;6.37;;;;;;;;;;5049140;28;20886;-74
2021/06/28 12:01:17;;;;;;;4.97;4.67;;;;;;;;;;5050415;28;20607;-73
2021/06/28 12:03:43;;;;;;;4.90;4.60;;;;;;;;;;5050443;28;20415;-73
2021/06/28 12:06:10;;;;;;;4.27;3.97;;;;;;;;;;5050689;28;20416;-75
2021/06/28 12:08:36;;;;;;;4.00;3.70;;;;;;;;;;5049825;28;20463;-75
2021/06/28 12:11:02;;;;;;;5.23;4.73;;;;;;;;;;5050229;28;20420;-71
2021/06/28 12:13:35;;;;;;;4.63;4.33;;;;;;;;;;5050189;28;20425;-74
2021/06/28 12:16:14;;;;;;;4.60;4.30;;;;;;;;;;5050367;28;20423;-73
2021/06/28 12:18:40;;;;;;;5.20;4.90;;;;;;;;;;5049773;28;20475;-74
2021/06/28 12:21:06;;;;;;;4.70;4.40;;;;;;;;;;5050188;28;20490;-72
2021/06/28 12:23:32;;;;;;;4.70;4.40;;;;;;;;;;5050180;28;20439;-75
2021/06/28 12:26:09;;;;;;;4.20;3.90;;;;;;;;;;5050242;28;20920;-74
2021/06/28 12:28:35;;;;;;;4.30;4.00;;;;;;;;;;5049708;28;20442;-76
2021/06/28 12:31:01;;;;;;;4.20;3.97;;;;;;;;;;5050145;28;20419;-71
2021/06/28 12:33:27;;;;;;;4.27;3.97;;;;;;;;;;5050202;28;20421;-77
2021/06/28 12:35:59;;;;;;;4.50;4.03;;;;;;;;;;5050124;28;20411;-75
2021/06/28 12:38:25;;;;;;;3.90;3.70;;;;;;;;;;5036522;28;20435;-74
2021/06/28 12:40:51;;;;;;;4.20;3.90;;;;;;;;;;5049762;28;20455;-73
2021/06/28 12:43:19;;;;;;;4.67;4.37;;;;;;;;;;5049983;28;20412;-75
2021/06/28 12:45:47;;;;;;;4.30;4.00;;;;;;;;;;5049576;28;20411;-72
2021/06/28 12:48:21;;;;;;;3.50;3.20;;;;;;;;;;5049556;28;20415;-72
2021/06/28 12:50:57;;;;;;;4.20;3.93;;;;;;;;;;5048076;28;20511;-75
2021/06/28 12:53:23;;;;;;;4.40;4.00;;;;;;;;;;5049913;28;20447;-76
2021/06/28 12:55:50;;;;;;;4.30;4.00;;;;;;;;;;5049445;28;20433;-77
2021/06/28 12:58:17;;;;;;;3.77;3.57;;;;;;;;;;5049370;28;21002;-74
2021/06/28 13:00:50;;;;;;;4.23;3.93;;;;;;;;;;5049487;28;20509;-73
2021/06/28 13:03:16;;;;;;;4.10;3.90;;;;;;;;;;5048283;28;20997;-72
2021/06/28 13:05:55;;;;;;;4.10;3.80;;;;;;;;;;5049535;28;20430;-72
2021/06/28 13:08:29;;;;;;;4.30;3.93;;;;;;;;;;5049302;28;20446;-74
2021/06/28 13:10:59;;;;;;;4.60;4.30;;;;;;;;;;5049584;28;20412;-71
2021/06/28 13:13:27;;;;;;;4.00;3.70;;;;;;;;;;5049759;28;20470;-72
2021/06/28 13:16:09;;;;;;;4.23;3.90;;;;;;;;;;5049594;28;20408;-72
2021/06/28 13:18:35;;;;;;;4.60;4.30;;;;;;;;;;5035849;28;20435;-72
2021/06/28 13:21:14;;;;;;;3.63;3.43;;;;;;;;;;5047877;28;20494;-73
2021/06/28 13:23:40;;;;;;;4.70;4.30;;;;;;;;;;5049736;28;20420;-75
2021/06/28 13:26:13;;;;;;;4.27;3.97;;;;;;;;;;5049519;28;20457;-72
2021/06/28 13:28:39;;;;;;;4.67;4.37;;;;;;;;;;5049235;28;20488;-76
2021/06/28 13:31:05;;;;;;;4.47;4.17;;;;;;;;;;5049571;28;20780;-73
2021/06/28 13:33:31;;;;;;;4.70;4.40;;;;;;;;;;5049528;28;20420;-75
2021/06/28 13:36:11;;;;;;;4.73;4.33;;;;;;;;;;5049243;28;20457;-73
2021/06/28 13:38:50;;;;;;;4.50;4.20;;;;;;;;;;5035695;28;20799;-75
2021/06/28 13:41:16;;;;;;;6.53;4.10;;;;;;;;;;5048838;28;20561;-75
2021/06/28 13:43:42;;;;;;;4.80;4.50;;;;;;;;;;5049442;28;20418;-74
2021/06/28 13:46:08;;;;;;;5.70;5.30;;;;;;;;;;5049171;28;20833;-74
2021/06/28 13:48:36;;;;;;;4.33;4.03;;;;;;;;;;5048613;28;20475;-73
2021/06/28 13:51:10;;;;;;;8.93;4.90;;;;;;;;;;5048094;28;20455;-76
2021/06/28 13:53:36;;;;;;;5.30;5.00;;;;;;;;;;5048945;28;20499;-74
2021/06/28 13:56:07;;;;;;;5.20;4.23;;;;;;;;;;5051232;28;20975;-76
2021/06/28 13:58:36;;;;;;;4.90;4.60;;;;;;;;;;5052623;28;20490;-72
2021/06/28 14:01:02;;;;;;;4.53;4.23;;;;;;;;;;5052851;28;20561;-74
2021/06/28 14:03:28;;;;;;;9.67;8.97;;;;;;;;;;5053201;28;20411;-72
2021/06/28 14:05:55;;;;;;;5.17;4.77;;;;;;;;;;5052690;28;20407;-74
2021/06/28 14:08:22;;;;;;;5.77;5.37;;;;;;;;;;5052303;28;20939;-75
2021/06/28 14:10:49;;;;;;;4.90;4.60;;;;;;;;;;5052623;28;20411;-76
2021/06/28 14:13:15;;;;;;;4.90;4.60;;;;;;;;;;5052836;28;20430;-75
2021/06/28 14:15:41;;;;;;;4.77;4.47;;;;;;;;;;5052578;28;20423;-76
2021/06/28 14:18:07;;;;;;;4.83;4.53;;;;;;;;;;5052358;28;20498;-73
2021/06/28 14:20:34;;;;;;;5.30;4.87;;;;;;;;;;5052603;28;20564;-73
2021/06/28 14:23:00;;;;;;;4.80;4.50;;;;;;;;;;5052431;28;20426;-76
2021/06/28 14:25:26;;;;;;;5.40;5.00;;;;;;;;;;5052692;28;21196;-75
2021/06/28 14:27:53;;;;;;;5.07;4.67;;;;;;;;;;5050331;28;20430;-74
2021/06/28 14:30:21;;;;;;;5.17;4.80;;;;;;;;;;5052398;28;21025;-76
2021/06/28 14:32:48;;;;;;;5.60;5.23;;;;;;;;;;5052496;28;20449;-78
2021/06/28 14:35:15;;;;;;;5.70;5.30;;;;;;;;;;5052449;28;20863;-73
2021/06/28 14:37:41;;;;;;;5.30;5.00;;;;;;;;;;5050632;28;20489;-74
2021/06/28 14:40:08;;;;;;;5.47;5.17;;;;;;;;;;5052450;28;20908;-76